RCH4009 KPUB-KDFW
Flight info
| Callsign | RCH4009 |
|---|---|
| Flight time | 1h 16m |
| Altitude | 37000 |
| Route | TBE EZEEE MDANO VKTRY2 |
| Aircraft | A20N/M-SDE2E3FGHILMOP2RWXY/LB1 |
Departure
| Time | 2026-04-26 15:46 |
|---|---|
| Airport | Pueblo Memorial Airport (KPUB) |
Arrival
| Time | 2026-04-26 17:02 |
|---|---|
| Airport | Dallas Fort Worth International Airport (KDFW) |
| Time | Latitude | Longitude | Altitude | Speed | Heading |
|---|---|---|---|---|---|
| 2026-04-26 14:47 | 38.28451 | -104.49499 | 4656 ft | 0 kts | 138° |
| 2026-04-26 15:36 | 38.28450 | -104.49496 | 4656 ft | 1 kts | 138° |
| 2026-04-26 15:36 | 38.28436 | -104.49477 | 4655 ft | 4 kts | 115° |
| 2026-04-26 15:37 | 38.28444 | -104.49442 | 4655 ft | 4 kts | 29° |
| 2026-04-26 15:37 | 38.28474 | -104.49438 | 4656 ft | 4 kts | 2° |
| 2026-04-26 15:37 | 38.28502 | -104.49418 | 4656 ft | 7 kts | 66° |
| 2026-04-26 15:37 | 38.28503 | -104.49343 | 4655 ft | 9 kts | 92° |
| 2026-04-26 15:38 | 38.28505 | -104.49252 | 4655 ft | 10 kts | 85° |
| 2026-04-26 15:38 | 38.28516 | -104.49192 | 4655 ft | 3 kts | 45° |
| 2026-04-26 15:38 | 38.28538 | -104.49184 | 4656 ft | 3 kts | 0° |
| 2026-04-26 15:38 | 38.28555 | -104.49184 | 4657 ft | 1 kts | 0° |
| 2026-04-26 15:39 | 38.28574 | -104.49185 | 4658 ft | 5 kts | 358° |
| 2026-04-26 15:39 | 38.28605 | -104.49187 | 4659 ft | 3 kts | 358° |
| 2026-04-26 15:39 | 38.28621 | -104.49188 | 4659 ft | 1 kts | 358° |
| 2026-04-26 15:39 | 38.28624 | -104.49188 | 4660 ft | 0 kts | 358° |
| 2026-04-26 15:40 | 38.28643 | -104.49185 | 4660 ft | 3 kts | 10° |
| 2026-04-26 15:40 | 38.28648 | -104.49194 | 4661 ft | 1 kts | 245° |
| 2026-04-26 15:40 | 38.28626 | -104.49195 | 4660 ft | 5 kts | 170° |
| 2026-04-26 15:40 | 38.28563 | -104.49186 | 4657 ft | 11 kts | 177° |
| 2026-04-26 15:41 | 38.28511 | -104.49125 | 4654 ft | 13 kts | 87° |
| 2026-04-26 15:41 | 38.28514 | -104.49000 | 4652 ft | 15 kts | 89° |
| 2026-04-26 15:41 | 38.28516 | -104.48864 | 4652 ft | 15 kts | 90° |
| 2026-04-26 15:41 | 38.28542 | -104.48732 | 4653 ft | 15 kts | 57° |
| 2026-04-26 15:42 | 38.28573 | -104.48604 | 4654 ft | 15 kts | 82° |
| 2026-04-26 15:42 | 38.28592 | -104.48464 | 4653 ft | 16 kts | 81° |
| 2026-04-26 15:42 | 38.28610 | -104.48326 | 4653 ft | 15 kts | 80° |
| 2026-04-26 15:42 | 38.28631 | -104.48182 | 4651 ft | 17 kts | 81° |
| 2026-04-26 15:43 | 38.28650 | -104.48025 | 4648 ft | 18 kts | 88° |
| 2026-04-26 15:43 | 38.28653 | -104.47858 | 4645 ft | 19 kts | 89° |
| 2026-04-26 15:43 | 38.28668 | -104.47502 | 4641 ft | 19 kts | 88° |
| 2026-04-26 15:44 | 38.28672 | -104.47381 | 4644 ft | 6 kts | 69° |
| 2026-04-26 15:44 | 38.28734 | -104.47357 | 4646 ft | 6 kts | 356° |
| 2026-04-26 15:44 | 38.28796 | -104.47370 | 4647 ft | 9 kts | 316° |
| 2026-04-26 15:45 | 38.28789 | -104.47835 | 4647 ft | 68 kts | 268° |
| 2026-04-26 15:45 | 38.28769 | -104.48745 | 4662 ft | 136 kts | 270° |
| 2026-04-26 15:46 | 38.28735 | -104.51625 | 5647 ft | 167 kts | 272° |
| 2026-04-26 15:46 | 38.28563 | -104.53037 | 6347 ft | 168 kts | 243° |
| 2026-04-26 15:46 | 38.27826 | -104.54146 | 7102 ft | 166 kts | 211° |
| 2026-04-26 15:46 | 38.27136 | -104.54506 | 7626 ft | 163 kts | 190° |
| 2026-04-26 15:47 | 38.25654 | -104.54335 | 8504 ft | 168 kts | 165° |
| 2026-04-26 15:47 | 38.23592 | -104.52383 | 9121 ft | 204 kts | 143° |
| 2026-04-26 15:47 | 38.22474 | -104.51144 | 9433 ft | 221 kts | 144° |
| 2026-04-26 15:48 | 38.21227 | -104.49836 | 9705 ft | 244 kts | 146° |
| 2026-04-26 15:48 | 38.19864 | -104.48465 | 10064 ft | 262 kts | 147° |
| 2026-04-26 15:48 | 38.18376 | -104.47000 | 10476 ft | 279 kts | 147° |
| 2026-04-26 15:48 | 38.16774 | -104.45447 | 10879 ft | 297 kts | 148° |
| 2026-04-26 15:49 | 38.15076 | -104.43814 | 11243 ft | 314 kts | 148° |
| 2026-04-26 15:49 | 38.13315 | -104.42124 | 11824 ft | 322 kts | 148° |
| 2026-04-26 15:49 | 38.11510 | -104.40392 | 12549 ft | 327 kts | 149° |
| 2026-04-26 15:49 | 38.09701 | -104.38661 | 13217 ft | 330 kts | 149° |
| 2026-04-26 15:50 | 38.07870 | -104.36910 | 13882 ft | 334 kts | 150° |
| 2026-04-26 15:50 | 38.05994 | -104.35129 | 14540 ft | 339 kts | 150° |
| 2026-04-26 15:50 | 38.04102 | -104.33337 | 15214 ft | 343 kts | 150° |
| 2026-04-26 15:50 | 38.02205 | -104.31543 | 15870 ft | 345 kts | 150° |
| 2026-04-26 15:51 | 38.00274 | -104.29711 | 16582 ft | 348 kts | 150° |
| 2026-04-26 15:51 | 37.98300 | -104.27839 | 17251 ft | 350 kts | 150° |
| 2026-04-26 15:51 | 37.96357 | -104.25998 | 17898 ft | 353 kts | 150° |
| 2026-04-26 15:51 | 37.94391 | -104.24138 | 18503 ft | 357 kts | 150° |
| 2026-04-26 15:52 | 37.92384 | -104.22237 | 19087 ft | 361 kts | 150° |
| 2026-04-26 15:52 | 37.90389 | -104.20349 | 19676 ft | 363 kts | 150° |
| 2026-04-26 15:52 | 37.88350 | -104.18424 | 20266 ft | 367 kts | 150° |
| 2026-04-26 15:52 | 37.86986 | -104.17133 | 20637 ft | 369 kts | 151° |
| 2026-04-26 15:53 | 37.84244 | -104.14545 | 21412 ft | 373 kts | 151° |
| 2026-04-26 15:53 | 37.82158 | -104.12578 | 21949 ft | 376 kts | 152° |
| 2026-04-26 15:53 | 37.80060 | -104.10603 | 22442 ft | 381 kts | 152° |
| 2026-04-26 15:53 | 37.77922 | -104.08590 | 22962 ft | 384 kts | 152° |
| 2026-04-26 15:54 | 37.75770 | -104.06567 | 23434 ft | 389 kts | 152° |
| 2026-04-26 15:54 | 37.73614 | -104.04542 | 23910 ft | 393 kts | 152° |
| 2026-04-26 15:54 | 37.71398 | -104.02461 | 24438 ft | 395 kts | 152° |
| 2026-04-26 15:54 | 37.69203 | -104.00403 | 24912 ft | 399 kts | 152° |
| 2026-04-26 15:55 | 37.66975 | -103.98313 | 25363 ft | 402 kts | 153° |
| 2026-04-26 15:55 | 37.64709 | -103.96190 | 25874 ft | 404 kts | 153° |
| 2026-04-26 15:55 | 37.62477 | -103.94098 | 26367 ft | 405 kts | 153° |
| 2026-04-26 15:55 | 37.60203 | -103.91972 | 26785 ft | 409 kts | 153° |
| 2026-04-26 15:56 | 37.57890 | -103.89807 | 27181 ft | 412 kts | 153° |
| 2026-04-26 15:56 | 37.55605 | -103.87673 | 27581 ft | 415 kts | 153° |
| 2026-04-26 15:56 | 37.53276 | -103.85500 | 27979 ft | 418 kts | 153° |
| 2026-04-26 15:56 | 37.50950 | -103.83329 | 28378 ft | 420 kts | 154° |
| 2026-04-26 15:57 | 37.48582 | -103.81123 | 28765 ft | 423 kts | 153° |
| 2026-04-26 15:57 | 37.46209 | -103.78912 | 29164 ft | 424 kts | 154° |
| 2026-04-26 15:57 | 37.43844 | -103.76709 | 29501 ft | 428 kts | 154° |
| 2026-04-26 15:57 | 37.42236 | -103.75213 | 29742 ft | 429 kts | 154° |
| 2026-04-26 15:58 | 37.39034 | -103.72239 | 30205 ft | 432 kts | 154° |
| 2026-04-26 15:58 | 37.36630 | -103.70006 | 30495 ft | 435 kts | 154° |
| 2026-04-26 15:58 | 37.34198 | -103.67748 | 30809 ft | 437 kts | 154° |
| 2026-04-26 15:58 | 37.31752 | -103.65482 | 31090 ft | 440 kts | 154° |
| 2026-04-26 15:59 | 37.29315 | -103.63135 | 31391 ft | 445 kts | 151° |
| 2026-04-26 15:59 | 37.26960 | -103.60593 | 31799 ft | 449 kts | 148° |
| 2026-04-26 15:59 | 37.24718 | -103.57857 | 32185 ft | 454 kts | 144° |
| 2026-04-26 15:59 | 37.22567 | -103.54884 | 32553 ft | 459 kts | 140° |
| 2026-04-26 16:00 | 37.20552 | -103.51775 | 32892 ft | 461 kts | 139° |
| 2026-04-26 16:00 | 37.18595 | -103.48672 | 33242 ft | 461 kts | 138° |
| 2026-04-26 16:00 | 37.16602 | -103.45517 | 33521 ft | 462 kts | 138° |
| 2026-04-26 16:00 | 37.14607 | -103.42361 | 33807 ft | 463 kts | 139° |
| 2026-04-26 16:01 | 37.12607 | -103.39205 | 34134 ft | 462 kts | 139° |
| 2026-04-26 16:01 | 37.10601 | -103.36053 | 34383 ft | 462 kts | 139° |
| 2026-04-26 16:01 | 37.08623 | -103.32949 | 34631 ft | 462 kts | 139° |
| 2026-04-26 16:01 | 37.06600 | -103.29780 | 34861 ft | 462 kts | 139° |
| 2026-04-26 16:02 | 37.04606 | -103.26659 | 35081 ft | 462 kts | 139° |
| 2026-04-26 16:02 | 37.02608 | -103.23534 | 35293 ft | 462 kts | 139° |
| 2026-04-26 16:02 | 37.00596 | -103.20393 | 35480 ft | 462 kts | 139° |
| 2026-04-26 16:02 | 36.99274 | -103.18331 | 35591 ft | 463 kts | 139° |
| 2026-04-26 16:03 | 36.96584 | -103.14141 | 35769 ft | 465 kts | 139° |
| 2026-04-26 16:03 | 36.94556 | -103.10984 | 35918 ft | 466 kts | 139° |
| 2026-04-26 16:03 | 36.92543 | -103.07851 | 36121 ft | 467 kts | 139° |
| 2026-04-26 16:03 | 36.90507 | -103.04685 | 36361 ft | 466 kts | 139° |
| 2026-04-26 16:04 | 36.88473 | -103.01525 | 36519 ft | 468 kts | 139° |
| 2026-04-26 16:04 | 36.86438 | -102.98367 | 36690 ft | 469 kts | 139° |
| 2026-04-26 16:04 | 36.84394 | -102.95197 | 36887 ft | 469 kts | 139° |
| 2026-04-26 16:05 | 36.80296 | -102.88858 | 36915 ft | 471 kts | 139° |
| 2026-04-26 16:05 | 36.76206 | -102.82536 | 36908 ft | 471 kts | 139° |
| 2026-04-26 16:06 | 36.72092 | -102.76193 | 36914 ft | 473 kts | 139° |
| 2026-04-26 16:06 | 36.67951 | -102.69817 | 36915 ft | 472 kts | 138° |
| 2026-04-26 16:07 | 36.63830 | -102.63484 | 36905 ft | 472 kts | 139° |
| 2026-04-26 16:07 | 36.59724 | -102.57190 | 36907 ft | 473 kts | 138° |
| 2026-04-26 16:08 | 36.55569 | -102.50832 | 36905 ft | 473 kts | 139° |
| 2026-04-26 16:08 | 36.51397 | -102.44460 | 36906 ft | 475 kts | 138° |
| 2026-04-26 16:09 | 36.47240 | -102.38117 | 36906 ft | 475 kts | 138° |
| 2026-04-26 16:09 | 36.43084 | -102.31789 | 36903 ft | 474 kts | 139° |
| 2026-04-26 16:10 | 36.38927 | -102.25474 | 36903 ft | 474 kts | 139° |
| 2026-04-26 16:10 | 36.34744 | -102.19138 | 36903 ft | 475 kts | 139° |
| 2026-04-26 16:11 | 36.30557 | -102.12801 | 36903 ft | 476 kts | 139° |
| 2026-04-26 16:11 | 36.26381 | -102.06490 | 36893 ft | 476 kts | 139° |
| 2026-04-26 16:12 | 36.22155 | -102.00123 | 36890 ft | 478 kts | 139° |
| 2026-04-26 16:12 | 36.15835 | -101.90610 | 36886 ft | 477 kts | 139° |
| 2026-04-26 16:13 | 36.11612 | -101.84274 | 36885 ft | 478 kts | 138° |
| 2026-04-26 16:13 | 36.07397 | -101.77962 | 36882 ft | 478 kts | 138° |
| 2026-04-26 16:14 | 36.03189 | -101.71664 | 36885 ft | 477 kts | 139° |
| 2026-04-26 16:15 | 35.96840 | -101.62196 | 36890 ft | 479 kts | 138° |
| 2026-04-26 16:15 | 35.92601 | -101.55884 | 36883 ft | 479 kts | 138° |
| 2026-04-26 16:16 | 35.86213 | -101.46396 | 36871 ft | 481 kts | 137° |
| 2026-04-26 16:16 | 35.81960 | -101.40093 | 36872 ft | 481 kts | 138° |
| 2026-04-26 16:17 | 35.77437 | -101.34098 | 36869 ft | 476 kts | 144° |
| 2026-04-26 16:17 | 35.72801 | -101.28322 | 36863 ft | 475 kts | 143° |
| 2026-04-26 16:18 | 35.70481 | -101.25434 | 37021 ft | 474 kts | 143° |
| 2026-04-26 16:18 | 35.65871 | -101.19692 | 36884 ft | 473 kts | 143° |
| 2026-04-26 16:19 | 35.58979 | -101.11115 | 36869 ft | 473 kts | 143° |
| 2026-04-26 16:20 | 35.52031 | -101.02484 | 36894 ft | 474 kts | 143° |
| 2026-04-26 16:20 | 35.45074 | -100.93864 | 36882 ft | 474 kts | 143° |
| 2026-04-26 16:21 | 35.40469 | -100.88170 | 36885 ft | 474 kts | 143° |
| 2026-04-26 16:21 | 35.35817 | -100.82428 | 36868 ft | 474 kts | 143° |
| 2026-04-26 16:22 | 35.31195 | -100.76733 | 36875 ft | 473 kts | 143° |
| 2026-04-26 16:22 | 35.26543 | -100.71011 | 36867 ft | 475 kts | 143° |
| 2026-04-26 16:23 | 35.21876 | -100.65280 | 36857 ft | 475 kts | 143° |
| 2026-04-26 16:23 | 35.17239 | -100.59598 | 36848 ft | 476 kts | 143° |
| 2026-04-26 16:24 | 35.12566 | -100.53879 | 36851 ft | 474 kts | 143° |
| 2026-04-26 16:24 | 35.07919 | -100.48204 | 36842 ft | 475 kts | 143° |
| 2026-04-26 16:25 | 35.03237 | -100.42495 | 36841 ft | 475 kts | 143° |
| 2026-04-26 16:25 | 34.98587 | -100.36837 | 36842 ft | 476 kts | 143° |
| 2026-04-26 16:26 | 34.94684 | -100.32089 | 36843 ft | 475 kts | 143° |
| 2026-04-26 16:26 | 34.89220 | -100.25462 | 36839 ft | 476 kts | 143° |
| 2026-04-26 16:27 | 34.84551 | -100.19806 | 36823 ft | 476 kts | 143° |
| 2026-04-26 16:27 | 34.79870 | -100.14146 | 36824 ft | 476 kts | 143° |
| 2026-04-26 16:28 | 34.75174 | -100.08480 | 36822 ft | 477 kts | 143° |
| 2026-04-26 16:28 | 34.70466 | -100.02803 | 36822 ft | 475 kts | 143° |
| 2026-04-26 16:29 | 34.65767 | -99.97150 | 36825 ft | 476 kts | 143° |
| 2026-04-26 16:29 | 34.61076 | -99.91516 | 36824 ft | 477 kts | 143° |
| 2026-04-26 16:30 | 34.56347 | -99.85848 | 36817 ft | 478 kts | 143° |
| 2026-04-26 16:30 | 34.51630 | -99.80198 | 36821 ft | 477 kts | 143° |
| 2026-04-26 16:31 | 34.46930 | -99.74577 | 36820 ft | 477 kts | 143° |
| 2026-04-26 16:31 | 34.42207 | -99.68941 | 36815 ft | 477 kts | 143° |
| 2026-04-26 16:32 | 34.38260 | -99.64239 | 36816 ft | 478 kts | 143° |
| 2026-04-26 16:32 | 34.33045 | -99.57272 | 36816 ft | 486 kts | 134° |
| 2026-04-26 16:33 | 34.29213 | -99.50433 | 36811 ft | 495 kts | 126° |
| 2026-04-26 16:33 | 34.27494 | -99.46818 | 36553 ft | 495 kts | 125° |
| 2026-04-26 16:33 | 34.25830 | -99.43259 | 36276 ft | 493 kts | 125° |
| 2026-04-26 16:34 | 34.24134 | -99.39635 | 35997 ft | 489 kts | 125° |
| 2026-04-26 16:34 | 34.22463 | -99.36094 | 35711 ft | 486 kts | 125° |
| 2026-04-26 16:34 | 34.20789 | -99.32567 | 35335 ft | 485 kts | 126° |
| 2026-04-26 16:34 | 34.19112 | -99.29044 | 34866 ft | 485 kts | 126° |
| 2026-04-26 16:35 | 34.17443 | -99.25549 | 34297 ft | 486 kts | 126° |
| 2026-04-26 16:35 | 34.15760 | -99.22038 | 33691 ft | 486 kts | 126° |
| 2026-04-26 16:35 | 34.14059 | -99.18491 | 33072 ft | 487 kts | 126° |
| 2026-04-26 16:35 | 34.12364 | -99.14956 | 32449 ft | 488 kts | 126° |
| 2026-04-26 16:36 | 34.10675 | -99.11441 | 31809 ft | 489 kts | 125° |
| 2026-04-26 16:36 | 34.08969 | -99.07889 | 31140 ft | 491 kts | 125° |
| 2026-04-26 16:36 | 34.07252 | -99.04318 | 30476 ft | 491 kts | 125° |
| 2026-04-26 16:36 | 34.05554 | -99.00785 | 30019 ft | 486 kts | 125° |
| 2026-04-26 16:37 | 34.03881 | -98.97307 | 29564 ft | 482 kts | 124° |
| 2026-04-26 16:37 | 34.02195 | -98.93804 | 29085 ft | 477 kts | 124° |
| 2026-04-26 16:37 | 34.00538 | -98.90369 | 28628 ft | 473 kts | 124° |
| 2026-04-26 16:37 | 33.99445 | -98.88106 | 28323 ft | 470 kts | 124° |
| 2026-04-26 16:38 | 33.97284 | -98.83631 | 27716 ft | 465 kts | 124° |
| 2026-04-26 16:38 | 33.95673 | -98.80301 | 27257 ft | 461 kts | 124° |
| 2026-04-26 16:38 | 33.94051 | -98.76951 | 26805 ft | 458 kts | 124° |
| 2026-04-26 16:38 | 33.92457 | -98.73664 | 26346 ft | 454 kts | 124° |
| 2026-04-26 16:39 | 33.90883 | -98.70420 | 25908 ft | 450 kts | 124° |
| 2026-04-26 16:39 | 33.89313 | -98.67191 | 25458 ft | 447 kts | 124° |
| 2026-04-26 16:39 | 33.87736 | -98.63975 | 25010 ft | 443 kts | 125° |
| 2026-04-26 16:39 | 33.86178 | -98.60812 | 24568 ft | 440 kts | 125° |
| 2026-04-26 16:40 | 33.84626 | -98.57670 | 24113 ft | 437 kts | 124° |
| 2026-04-26 16:40 | 33.83073 | -98.54531 | 23675 ft | 447 kts | 124° |
| 2026-04-26 16:40 | 33.81473 | -98.51288 | 23202 ft | 450 kts | 124° |
| 2026-04-26 16:40 | 33.79895 | -98.48053 | 22744 ft | 447 kts | 123° |
| 2026-04-26 16:41 | 33.78343 | -98.44866 | 22292 ft | 444 kts | 123° |
| 2026-04-26 16:41 | 33.76792 | -98.41678 | 21828 ft | 441 kts | 123° |
| 2026-04-26 16:41 | 33.75250 | -98.38519 | 21365 ft | 437 kts | 123° |
| 2026-04-26 16:41 | 33.73720 | -98.35388 | 20905 ft | 434 kts | 123° |
| 2026-04-26 16:42 | 33.72207 | -98.32293 | 20451 ft | 431 kts | 124° |
| 2026-04-26 16:42 | 33.70676 | -98.29169 | 19991 ft | 427 kts | 124° |
| 2026-04-26 16:42 | 33.69180 | -98.26115 | 19545 ft | 424 kts | 124° |
| 2026-04-26 16:42 | 33.67696 | -98.23090 | 19094 ft | 421 kts | 124° |
| 2026-04-26 16:43 | 33.66223 | -98.20097 | 18645 ft | 418 kts | 124° |
| 2026-04-26 16:43 | 33.64742 | -98.17090 | 18186 ft | 415 kts | 124° |
| 2026-04-26 16:43 | 33.63290 | -98.14140 | 17735 ft | 411 kts | 124° |
| 2026-04-26 16:43 | 33.61840 | -98.11218 | 17286 ft | 408 kts | 124° |
| 2026-04-26 16:44 | 33.60402 | -98.08328 | 16846 ft | 405 kts | 124° |
| 2026-04-26 16:44 | 33.58966 | -98.05440 | 16401 ft | 402 kts | 124° |
| 2026-04-26 16:44 | 33.57533 | -98.02560 | 15952 ft | 399 kts | 124° |
| 2026-04-26 16:44 | 33.56126 | -97.99735 | 15515 ft | 396 kts | 124° |
| 2026-04-26 16:45 | 33.54728 | -97.96929 | 15089 ft | 393 kts | 124° |
| 2026-04-26 16:45 | 33.53320 | -97.94106 | 14667 ft | 389 kts | 124° |
| 2026-04-26 16:45 | 33.51953 | -97.91363 | 14353 ft | 381 kts | 124° |
| 2026-04-26 16:45 | 33.50605 | -97.88660 | 13995 ft | 376 kts | 124° |
| 2026-04-26 16:46 | 33.49286 | -97.86014 | 13637 ft | 371 kts | 124° |
| 2026-04-26 16:46 | 33.47964 | -97.83359 | 13275 ft | 365 kts | 124° |
| 2026-04-26 16:46 | 33.46688 | -97.80796 | 12924 ft | 360 kts | 124° |
| 2026-04-26 16:46 | 33.45417 | -97.78249 | 12585 ft | 355 kts | 124° |
| 2026-04-26 16:47 | 33.44146 | -97.75702 | 12212 ft | 351 kts | 124° |
| 2026-04-26 16:47 | 33.42897 | -97.73199 | 11810 ft | 348 kts | 124° |
| 2026-04-26 16:47 | 33.41658 | -97.70720 | 11402 ft | 345 kts | 124° |
| 2026-04-26 16:47 | 33.40432 | -97.68273 | 11053 ft | 341 kts | 124° |
| 2026-04-26 16:48 | 33.39235 | -97.65882 | 10793 ft | 335 kts | 124° |
| 2026-04-26 16:48 | 33.37996 | -97.63550 | 10505 ft | 327 kts | 129° |
| 2026-04-26 16:48 | 33.36678 | -97.61362 | 10216 ft | 321 kts | 130° |
| 2026-04-26 16:48 | 33.35370 | -97.59242 | 9921 ft | 316 kts | 130° |
| 2026-04-26 16:49 | 33.34060 | -97.57127 | 9616 ft | 312 kts | 130° |
| 2026-04-26 16:49 | 33.32797 | -97.55086 | 9319 ft | 307 kts | 130° |
| 2026-04-26 16:49 | 33.31525 | -97.53027 | 9019 ft | 303 kts | 130° |
| 2026-04-26 16:49 | 33.30290 | -97.51022 | 8694 ft | 300 kts | 130° |
| 2026-04-26 16:50 | 33.29055 | -97.49021 | 8350 ft | 297 kts | 130° |
| 2026-04-26 16:50 | 33.27867 | -97.47042 | 7988 ft | 297 kts | 124° |
| 2026-04-26 16:50 | 33.27102 | -97.44736 | 7609 ft | 302 kts | 103° |
| 2026-04-26 16:50 | 33.26889 | -97.42242 | 7298 ft | 300 kts | 95° |
| 2026-04-26 16:51 | 33.26794 | -97.39769 | 6977 ft | 297 kts | 94° |
| 2026-04-26 16:51 | 33.26708 | -97.37344 | 6665 ft | 290 kts | 94° |
| 2026-04-26 16:51 | 33.26611 | -97.34977 | 6238 ft | 282 kts | 96° |
| 2026-04-26 16:51 | 33.26504 | -97.32682 | 5842 ft | 274 kts | 96° |
| 2026-04-26 16:52 | 33.26389 | -97.30433 | 5515 ft | 268 kts | 97° |
| 2026-04-26 16:52 | 33.26351 | -97.29716 | 5424 ft | 267 kts | 97° |
| 2026-04-26 16:52 | 33.26167 | -97.26165 | 5043 ft | 243 kts | 98° |
| 2026-04-26 16:52 | 33.26061 | -97.24175 | 4976 ft | 237 kts | 99° |
| 2026-04-26 16:53 | 33.25846 | -97.22250 | 4980 ft | 236 kts | 102° |
| 2026-04-26 16:53 | 33.25617 | -97.20292 | 4977 ft | 236 kts | 102° |
| 2026-04-26 16:53 | 33.25317 | -97.18380 | 4968 ft | 232 kts | 113° |
| 2026-04-26 16:53 | 33.24721 | -97.16627 | 4975 ft | 230 kts | 120° |
| 2026-04-26 16:54 | 33.24014 | -97.14901 | 4798 ft | 230 kts | 122° |
| 2026-04-26 16:54 | 33.23294 | -97.13206 | 4557 ft | 226 kts | 122° |
| 2026-04-26 16:54 | 33.22584 | -97.11545 | 4315 ft | 223 kts | 122° |
| 2026-04-26 16:54 | 33.21888 | -97.09914 | 4079 ft | 221 kts | 122° |
| 2026-04-26 16:55 | 33.21199 | -97.08293 | 3990 ft | 220 kts | 122° |
| 2026-04-26 16:55 | 33.20394 | -97.06766 | 3969 ft | 214 kts | 141° |
| 2026-04-26 16:55 | 33.19145 | -97.05869 | 3985 ft | 208 kts | 163° |
| 2026-04-26 16:55 | 33.17742 | -97.05457 | 3986 ft | 206 kts | 175° |
| 2026-04-26 16:56 | 33.14875 | -97.05334 | 3984 ft | 206 kts | 181° |
| 2026-04-26 16:56 | 33.13426 | -97.05347 | 3982 ft | 206 kts | 181° |
| 2026-04-26 16:56 | 33.11989 | -97.05359 | 3975 ft | 201 kts | 181° |
| 2026-04-26 16:57 | 33.10663 | -97.05368 | 4044 ft | 180 kts | 181° |
| 2026-04-26 16:57 | 33.09424 | -97.05375 | 3932 ft | 176 kts | 181° |
| 2026-04-26 16:57 | 33.07024 | -97.05389 | 3494 ft | 170 kts | 181° |
| 2026-04-26 16:58 | 33.05874 | -97.05394 | 3301 ft | 161 kts | 181° |
| 2026-04-26 16:58 | 33.05501 | -97.05396 | 3229 ft | 158 kts | 180° |
| 2026-04-26 16:58 | 33.02802 | -97.05409 | 2691 ft | 127 kts | 180° |
| 2026-04-26 16:59 | 33.01924 | -97.05415 | 2530 ft | 124 kts | 179° |
| 2026-04-26 16:59 | 33.00193 | -97.05423 | 2230 ft | 124 kts | 180° |
| 2026-04-26 17:00 | 32.98476 | -97.05432 | 1924 ft | 124 kts | 178° |
| 2026-04-26 17:00 | 32.96745 | -97.05442 | 1597 ft | 124 kts | 178° |
| 2026-04-26 17:00 | 32.95873 | -97.05447 | 1434 ft | 125 kts | 178° |
| 2026-04-26 17:01 | 32.94998 | -97.05455 | 1270 ft | 127 kts | 178° |
| 2026-04-26 17:01 | 32.94115 | -97.05472 | 1124 ft | 126 kts | 179° |
| 2026-04-26 17:01 | 32.93233 | -97.05476 | 967 ft | 127 kts | 177° |
| 2026-04-26 17:01 | 32.92341 | -97.05475 | 791 ft | 128 kts | 176° |
| 2026-04-26 17:02 | 32.91440 | -97.05466 | 625 ft | 129 kts | 178° |
| 2026-04-26 17:02 | 32.90640 | -97.05464 | 615 ft | 81 kts | 180° |
| 2026-04-26 17:02 | 32.90268 | -97.05467 | 617 ft | 45 kts | 177° |
| 2026-04-26 17:02 | 32.90000 | -97.05431 | 614 ft | 25 kts | 160° |
| 2026-04-26 17:03 | 32.89900 | -97.05370 | 612 ft | 14 kts | 150° |
| 2026-04-26 17:03 | 32.89841 | -97.05330 | 611 ft | 6 kts | 151° |
| 2026-04-26 17:03 | 32.89805 | -97.05306 | 610 ft | 3 kts | 151° |
| 2026-04-26 17:03 | 32.89794 | -97.05300 | 610 ft | 1 kts | 151° |
| 2026-04-26 17:04 | 32.89775 | -97.05288 | 609 ft | 4 kts | 154° |
| 2026-04-26 17:04 | 32.89730 | -97.05279 | 608 ft | 8 kts | 177° |
| 2026-04-26 17:04 | 32.89664 | -97.05276 | 607 ft | 10 kts | 180° |
| 2026-04-26 17:04 | 32.89582 | -97.05276 | 605 ft | 13 kts | 180° |
| 2026-04-26 17:05 | 32.89478 | -97.05278 | 601 ft | 16 kts | 182° |
| 2026-04-26 17:05 | 32.89356 | -97.05280 | 598 ft | 18 kts | 177° |
| 2026-04-26 17:05 | 32.89227 | -97.05280 | 594 ft | 19 kts | 180° |
| 2026-04-26 17:05 | 32.89080 | -97.05279 | 589 ft | 21 kts | 178° |
| 2026-04-26 17:06 | 32.88928 | -97.05283 | 586 ft | 21 kts | 183° |
| 2026-04-26 17:06 | 32.88783 | -97.05282 | 584 ft | 20 kts | 179° |
| 2026-04-26 17:06 | 32.88638 | -97.05286 | 581 ft | 21 kts | 180° |
| 2026-04-26 17:06 | 32.88522 | -97.05273 | 578 ft | 13 kts | 139° |
| 2026-04-26 17:07 | 32.88507 | -97.05176 | 576 ft | 12 kts | 91° |
| 2026-04-26 17:07 | 32.88506 | -97.05066 | 576 ft | 13 kts | 91° |
| 2026-04-26 17:07 | 32.88505 | -97.04954 | 576 ft | 13 kts | 90° |
| 2026-04-26 17:07 | 32.88504 | -97.04839 | 576 ft | 14 kts | 89° |
| 2026-04-26 17:08 | 32.88503 | -97.04718 | 576 ft | 14 kts | 91° |
| 2026-04-26 17:08 | 32.88503 | -97.04596 | 575 ft | 15 kts | 89° |
| 2026-04-26 17:08 | 32.88502 | -97.04458 | 572 ft | 17 kts | 92° |
| 2026-04-26 17:08 | 32.88501 | -97.04308 | 569 ft | 18 kts | 86° |
| 2026-04-26 17:09 | 32.88502 | -97.04147 | 567 ft | 19 kts | 91° |
| 2026-04-26 17:09 | 32.88500 | -97.04038 | 567 ft | 19 kts | 91° |
| 2026-04-26 17:09 | 32.88500 | -97.03822 | 567 ft | 19 kts | 90° |
| 2026-04-26 17:09 | 32.88499 | -97.03673 | 569 ft | 17 kts | 90° |
| 2026-04-26 17:10 | 32.88499 | -97.03549 | 572 ft | 11 kts | 90° |
| 2026-04-26 17:10 | 32.88539 | -97.03494 | 573 ft | 10 kts | 357° |
| 2026-04-26 17:10 | 32.88619 | -97.03494 | 573 ft | 11 kts | 360° |
| 2026-04-26 17:10 | 32.88672 | -97.03560 | 572 ft | 12 kts | 318° |
| 2026-04-26 17:11 | 32.88755 | -97.03587 | 571 ft | 13 kts | 25° |
| 2026-04-26 17:11 | 32.88825 | -97.03519 | 572 ft | 12 kts | 42° |
| 2026-04-26 17:11 | 32.88890 | -97.03471 | 573 ft | 8 kts | 9° |
| 2026-04-26 17:11 | 32.88923 | -97.03481 | 573 ft | 4 kts | 337° |
| 2026-04-26 17:12 | 32.88940 | -97.03526 | 573 ft | 3 kts | 289° |
| 2026-04-26 17:12 | 32.88944 | -97.03539 | 573 ft | 0 kts | 290° |